Time;durP1;ratioP1;P1;durP2;ratioP2;P2;SDS_P1;SDS_P2;PMS_P1;PMS_P2;Temp;Humidity;BMP_temperature;BMP_pressure;BME280_temperature;BME280_humidity;BME280_pressure;Samples;Min_cycle;Max_cycle;Signal;HPM_P1;HPM_P2
2023/04/13 00:17:46;;;;;;;14.17;5.50;;;6.50;64.60;;;;;;4942696;23;20064;-96
2023/04/13 00:20:14;;;;;;;12.57;5.53;;;6.60;64.70;;;;;;4874921;29;20053;-96
2023/04/13 00:22:43;;;;;;;14.55;6.40;;;6.60;64.70;;;;;;4872651;29;20059;-96
2023/04/13 00:25:13;;;;;;;11.63;6.05;;;6.70;64.20;;;;;;4876172;29;20049;-96
2023/04/13 00:27:42;;;;;;;13.85;5.63;;;6.70;64.30;;;;;;4886742;29;20140;-96
2023/04/13 00:30:14;;;;;;;12.97;6.17;;;6.70;64.20;;;;;;4872983;29;20062;-96
2023/04/13 00:32:43;;;;;;;14.55;5.13;;;6.80;64.00;;;;;;4889981;29;20045;-96
2023/04/13 00:35:17;;;;;;;15.63;6.95;;;6.70;64.40;;;;;;4875540;29;20112;-96
2023/04/13 00:37:46;;;;;;;14.20;5.22;;;6.80;64.50;;;;;;4892447;29;20075;-96
2023/04/13 00:40:15;;;;;;;14.48;6.20;;;6.70;64.60;;;;;;4870441;29;20040;-96
2023/04/13 00:42:47;;;;;;;13.70;6.00;;;6.80;63.90;;;;;;4869051;29;20079;-96
2023/04/13 00:45:16;;;;;;;12.52;5.90;;;6.80;63.80;;;;;;4868264;29;20048;-95
2023/04/13 00:47:46;;;;;;;14.85;6.03;;;6.90;64.10;;;;;;4868166;29;20044;-96
2023/04/13 00:50:19;;;;;;;11.32;5.90;;;6.90;63.70;;;;;;4868401;29;20100;-96
2023/04/13 00:52:47;;;;;;;12.82;5.43;;;7.00;63.40;;;;;;4868584;29;20151;-95
2023/04/13 00:55:19;;;;;;;14.53;5.43;;;7.00;63.60;;;;;;4868661;29;20514;-96
2023/04/13 00:57:51;;;;;;;12.70;5.35;;;7.00;63.20;;;;;;4869150;29;20115;-96
2023/04/13 01:00:19;;;;;;;12.57;4.30;;;7.10;62.50;;;;;;4872238;29;20143;-96
2023/04/13 01:02:46;;;;;;;10.18;4.78;;;7.20;62.40;;;;;;4872375;29;20079;-96
2023/04/13 01:05:15;;;;;;;12.30;4.65;;;7.20;62.30;;;;;;4886803;29;20053;-96
2023/04/13 01:08:10;;;;;;;11.43;4.87;;;7.30;62.30;;;;;;4871871;29;20147;-96
2023/04/13 01:10:57;;;;;;;12.70;5.38;;;7.40;62.20;;;;;;4889307;29;20056;-96
2023/04/13 01:13:39;;;;;;;11.52;4.40;;;7.30;62.50;;;;;;4880343;29;20522;-96
2023/04/13 01:20:49;;;;;;;11.18;4.43;;;7.40;62.30;;;;;;4901366;29;20051;-96
2023/04/13 02:08:48;;;;;;;11.68;4.38;;;7.70;59.60;;;;;;5644093;24;20179;-95
2023/04/13 02:11:53;;;;;;;10.60;4.00;;;7.80;59.90;;;;;;5061289;24;20056;-96
2023/04/13 02:14:22;;;;;;;10.43;4.18;;;7.70;59.80;;;;;;4878425;29;20059;-96
2023/04/13 02:21:21;;;;;;;13.27;4.13;;;7.70;59.50;;;;;;4988835;24;20070;-96
2023/04/13 05:07:30;;;;;;;9.25;3.80;;;7.80;60.10;;;;;;5769932;23;20064;-96
2023/04/13 05:11:41;;;;;;;10.20;4.00;;;7.90;60.30;;;;;;4801573;29;20054;-96
2023/04/13 05:41:02;;;;;;;18.05;3.70;;;8.40;60.00;;;;;;5282419;23;20050;-96
2023/04/13 05:47:57;;;;;;;8.65;3.28;;;8.70;58.90;;;;;;4844196;29;20033;-95
2023/04/13 06:27:05;;;;;;;8.75;3.60;;;9.80;56.80;;;;;;4856127;29;20045;-92
2023/04/13 06:29:32;;;;;;;7.68;3.05;;;9.80;56.60;;;;;;4820037;29;20046;-91
2023/04/13 06:32:06;;;;;;;8.85;3.45;;;9.90;56.30;;;;;;4823326;29;20045;-91
2023/04/13 06:34:34;;;;;;;8.57;3.40;;;10.00;56.90;;;;;;4833915;29;20058;-89
2023/04/13 06:37:02;;;;;;;8.57;3.43;;;10.00;56.20;;;;;;4823198;29;20124;-91
2023/04/13 06:39:41;;;;;;;9.45;3.40;;;10.10;56.40;;;;;;4832053;29;20113;-90
2023/04/13 06:42:09;;;;;;;8.15;3.75;;;10.20;55.40;;;;;;4835105;29;20042;-91
2023/04/13 06:44:55;;;;;;;8.32;3.40;;;10.20;55.80;;;;;;4838086;29;20102;-90
2023/04/13 06:47:23;;;;;;;8.95;3.60;;;10.30;55.80;;;;;;4828810;29;20061;-89
2023/04/13 06:49:51;;;;;;;9.40;3.50;;;10.50;55.60;;;;;;4824661;29;20057;-88
2023/04/13 06:52:18;;;;;;;9.43;3.50;;;10.60;55.50;;;;;;4843290;29;20053;-89
2023/04/13 06:54:45;;;;;;;12.20;4.88;;;10.70;55.70;;;;;;4820640;29;20049;-90
2023/04/13 06:57:25;;;;;;;9.07;3.22;;;10.90;56.50;;;;;;4830715;29;20046;-92
2023/04/13 06:59:52;;;;;;;10.77;4.10;;;11.10;54.30;;;;;;4835317;29;20045;-90
2023/04/13 07:02:20;;;;;;;8.87;3.33;;;11.20;53.90;;;;;;4824716;29;20049;-91
2023/04/13 07:04:48;;;;;;;8.20;3.45;;;11.40;54.50;;;;;;4832792;29;20045;-90
2023/04/13 07:07:15;;;;;;;12.02;3.63;;;11.50;53.50;;;;;;4816626;29;20046;-90
2023/04/13 07:09:43;;;;;;;10.18;3.67;;;11.50;53.30;;;;;;4827284;29;20045;-90
2023/04/13 07:12:10;;;;;;;9.13;3.55;;;11.50;53.00;;;;;;4836870;29;20049;-91
2023/04/13 07:14:39;;;;;;;8.60;3.37;;;11.50;53.00;;;;;;4818476;29;20050;-90
2023/04/13 07:17:09;;;;;;;9.38;3.20;;;11.60;53.10;;;;;;4832839;29;20572;-90
2023/04/13 07:19:45;;;;;;;8.05;3.40;;;11.70;53.00;;;;;;4840024;29;20477;-89
2023/04/13 07:22:13;;;;;;;8.88;3.30;;;11.80;52.60;;;;;;4823721;29;20049;-90
2023/04/13 07:24:40;;;;;;;8.15;3.50;;;11.80;53.20;;;;;;4825221;29;20049;-92
2023/04/13 07:27:13;;;;;;;9.57;3.90;;;12.00;52.80;;;;;;4830430;29;20046;-90
2023/04/13 07:29:41;;;;;;;10.25;3.42;;;12.00;53.30;;;;;;4819259;29;20070;-87
2023/04/13 07:32:12;;;;;;;9.05;3.55;;;12.10;52.30;;;;;;4835756;29;20060;-87
2023/04/13 07:34:42;;;;;;;10.52;4.07;;;12.30;52.50;;;;;;4829171;29;20046;-87
2023/04/13 07:37:09;;;;;;;15.63;4.32;;;12.30;52.30;;;;;;4838918;29;20041;-86
2023/04/13 07:39:36;;;;;;;12.10;3.97;;;12.40;52.10;;;;;;4813984;29;20045;-87
2023/04/13 07:42:03;;;;;;;11.68;4.45;;;12.40;51.70;;;;;;4815717;29;20060;-90
2023/04/13 07:44:41;;;;;;;9.77;3.50;;;12.50;51.80;;;;;;4818451;29;20053;-87
2023/04/13 07:47:09;;;;;;;11.45;4.32;;;12.50;51.50;;;;;;4834239;29;20508;-89
2023/04/13 07:49:36;;;;;;;12.95;5.10;;;12.60;51.30;;;;;;4839652;29;20050;-90
2023/04/13 07:52:06;;;;;;;12.13;4.77;;;12.90;50.10;;;;;;4834654;29;20057;-88
2023/04/13 07:54:52;;;;;;;8.75;3.67;;;13.00;51.10;;;;;;4837349;29;20621;-87
2023/04/13 07:57:21;;;;;;;9.60;4.03;;;13.30;50.80;;;;;;4819744;29;20041;-88
2023/04/13 07:59:54;;;;;;;9.63;3.80;;;13.40;49.80;;;;;;4835268;29;20386;-87
2023/04/13 08:02:23;;;;;;;8.45;3.60;;;13.50;50.80;;;;;;4817535;29;20042;-87
2023/04/13 08:04:53;;;;;;;9.97;4.17;;;13.50;49.80;;;;;;4831071;29;20050;-87
2023/04/13 08:07:26;;;;;;;7.93;3.38;;;13.60;48.60;;;;;;4824781;29;20128;-87
2023/04/13 08:09:53;;;;;;;10.27;4.28;;;13.60;49.90;;;;;;4832744;29;20052;-86
2023/04/13 08:12:21;;;;;;;11.43;4.05;;;13.70;49.10;;;;;;4818656;29;20049;-87
2023/04/13 08:14:50;;;;;;;9.90;3.90;;;13.80;48.70;;;;;;4830593;29;20038;-87
2023/04/13 08:17:18;;;;;;;9.23;3.30;;;13.80;49.60;;;;;;4833835;29;20102;-88
2023/04/13 08:19:45;;;;;;;14.82;3.95;;;14.00;49.30;;;;;;4842649;29;20060;-87
2023/04/13 08:22:14;;;;;;;9.57;4.40;;;14.00;50.00;;;;;;4821699;29;20106;-87
2023/04/13 08:24:41;;;;;;;11.02;3.65;;;14.10;48.70;;;;;;4833651;29;20491;-87
2023/04/13 08:27:09;;;;;;;9.57;3.67;;;14.10;49.00;;;;;;4832741;29;20050;-87
2023/04/13 08:29:38;;;;;;;9.40;3.73;;;14.10;48.00;;;;;;4834227;29;20458;-87
2023/04/13 08:32:05;;;;;;;10.88;3.30;;;14.20;49.10;;;;;;4832616;29;20098;-87
2023/04/13 08:34:33;;;;;;;10.30;3.17;;;14.40;49.20;;;;;;4842820;29;20133;-87
2023/04/13 08:37:00;;;;;;;8.55;3.20;;;14.50;48.90;;;;;;4823796;29;20044;-87
2023/04/13 08:39:32;;;;;;;8.63;3.95;;;14.50;47.80;;;;;;4822698;29;20471;-87
2023/04/13 08:42:00;;;;;;;9.07;3.60;;;14.50;46.50;;;;;;4829483;29;20080;-88
2023/04/13 08:44:32;;;;;;;9.18;3.90;;;14.50;48.00;;;;;;4821130;29;20076;-90
2023/04/13 08:47:00;;;;;;;20.33;4.10;;;14.50;48.50;;;;;;4823157;29;20074;-89
2023/04/13 08:49:32;;;;;;;12.52;5.30;;;14.60;48.70;;;;;;4832578;29;20077;-88
2023/04/13 08:52:10;;;;;;;20.08;7.20;;;14.70;47.40;;;;;;4831426;29;20082;-89
2023/04/13 08:54:39;;;;;;;8.07;3.40;;;14.80;49.40;;;;;;4833966;29;20135;-89
2023/04/13 08:57:15;;;;;;;7.70;3.08;;;14.90;48.60;;;;;;4823927;29;20097;-89
2023/04/13 08:59:44;;;;;;;8.15;3.30;;;14.90;47.70;;;;;;4842954;29;20045;-90
2023/04/13 09:02:11;;;;;;;11.02;3.10;;;15.00;47.60;;;;;;4822821;29;20049;-89
2023/04/13 09:04:54;;;;;;;9.35;3.67;;;15.00;48.70;;;;;;4837828;29;20053;-91
2023/04/13 09:07:26;;;;;;;11.30;3.30;;;15.20;48.20;;;;;;4821828;29;20408;-90
2023/04/13 09:09:59;;;;;;;12.75;3.33;;;15.30;48.80;;;;;;4847928;29;20050;-89
2023/04/13 09:12:28;;;;;;;8.65;3.92;;;15.30;46.90;;;;;;4824008;29;20046;-88
2023/04/13 09:14:55;;;;;;;12.25;4.63;;;15.40;47.80;;;;;;4822860;29;20045;-89
2023/04/13 09:17:33;;;;;;;12.27;5.32;;;15.50;47.30;;;;;;4817138;29;20076;-89
2023/04/13 09:20:30;;;;;;;8.83;4.10;;;15.50;47.40;;;;;;4838145;29;20050;-89
2023/04/13 09:22:57;;;;;;;48.90;21.02;;;15.50;47.20;;;;;;4812871;29;20556;-89
2023/04/13 09:25:26;;;;;;;11.02;3.67;;;15.50;48.30;;;;;;4834392;29;20064;-89
2023/04/13 09:27:54;;;;;;;10.70;3.40;;;15.30;47.40;;;;;;4843848;29;20078;-88
2023/04/13 09:30:23;;;;;;;9.05;3.42;;;15.30;48.20;;;;;;4833881;29;20041;-89
2023/04/13 09:33:05;;;;;;;8.00;3.43;;;15.40;47.80;;;;;;4841093;29;20053;-90
2023/04/13 09:35:33;;;;;;;8.35;3.10;;;15.40;47.10;;;;;;4841739;29;20050;-89
2023/04/13 09:38:00;;;;;;;11.55;4.05;;;15.50;47.70;;;;;;4824821;29;20045;-90
2023/04/13 09:40:28;;;;;;;9.82;4.00;;;15.50;46.90;;;;;;4845037;29;20045;-90
2023/04/13 09:43:06;;;;;;;14.88;5.00;;;15.60;48.00;;;;;;4832494;29;20042;-90
2023/04/13 09:45:37;;;;;;;8.20;2.67;;;15.70;47.00;;;;;;4839731;29;20131;-89
2023/04/13 09:48:15;;;;;;;7.97;3.22;;;15.60;47.60;;;;;;4840632;29;20132;-89
2023/04/13 09:50:43;;;;;;;6.60;3.00;;;15.70;49.00;;;;;;4828322;29;20057;-88
2023/04/13 09:53:10;;;;;;;6.78;2.70;;;15.70;46.70;;;;;;4837925;29;20050;-89
2023/04/13 09:55:38;;;;;;;8.05;3.17;;;15.60;47.40;;;;;;4823111;29;20050;-91
2023/04/13 09:58:16;;;;;;;7.27;3.00;;;15.70;47.90;;;;;;4836604;29;20059;-91
2023/04/13 10:00:45;;;;;;;10.43;3.10;;;15.60;47.80;;;;;;4821454;29;20584;-88
2023/04/13 10:03:13;;;;;;;9.32;3.67;;;15.60;46.60;;;;;;4819621;29;20046;-89
2023/04/13 10:05:42;;;;;;;6.45;2.70;;;15.80;49.20;;;;;;4826059;29;20060;-90
2023/04/13 10:08:25;;;;;;;9.25;3.22;;;15.90;48.00;;;;;;4816804;29;20054;-89
2023/04/13 10:11:11;;;;;;;11.77;4.23;;;16.00;48.10;;;;;;4829502;29;20109;-90
2023/04/13 10:13:51;;;;;;;13.05;4.57;;;16.10;47.90;;;;;;4841354;29;20500;-90
2023/04/13 10:16:43;;;;;;;12.32;5.47;;;16.20;48.20;;;;;;4824889;29;20042;-89
2023/04/13 10:19:21;;;;;;;11.38;4.75;;;16.20;47.60;;;;;;4838178;29;20556;-89
2023/04/13 10:21:51;;;;;;;9.68;4.65;;;16.30;47.60;;;;;;4829169;29;20046;-89
2023/04/13 10:24:19;;;;;;;9.83;4.90;;;16.20;46.70;;;;;;4820813;29;20045;-89
2023/04/13 10:26:53;;;;;;;8.98;3.92;;;16.10;48.60;;;;;;4830219;29;20074;-90
2023/04/13 10:29:31;;;;;;;9.57;3.80;;;16.10;46.90;;;;;;4836082;29;20062;-90
2023/04/13 10:32:01;;;;;;;7.72;3.40;;;16.00;48.90;;;;;;4825707;29;20060;-92
2023/04/13 10:34:31;;;;;;;9.00;3.67;;;16.00;48.10;;;;;;4828834;29;20053;-92
2023/04/13 10:37:02;;;;;;;9.57;3.70;;;16.00;46.40;;;;;;4847330;29;20575;-92
2023/04/13 10:39:32;;;;;;;8.57;3.65;;;16.00;46.70;;;;;;4836946;29;20516;-84
2023/04/13 10:42:07;;;;;;;7.25;3.40;;;16.00;47.50;;;;;;4822547;29;20069;-86
2023/04/13 10:44:48;;;;;;;44.78;17.00;;;16.10;47.90;;;;;;4843671;29;20046;-89
2023/04/13 10:47:19;;;;;;;12.55;4.80;;;16.20;48.50;;;;;;4836722;29;20054;-90
2023/04/13 10:49:48;;;;;;;10.90;3.73;;;16.20;47.30;;;;;;4819448;29;20050;-89
2023/04/13 10:52:15;;;;;;;8.43;3.25;;;16.10;47.20;;;;;;4833758;29;20457;-89
2023/04/13 10:54:43;;;;;;;12.43;5.03;;;16.10;48.20;;;;;;4825153;29;20052;-90
2023/04/13 10:57:11;;;;;;;8.15;3.72;;;16.10;47.30;;;;;;4825591;29;20067;-89
2023/04/13 10:59:52;;;;;;;8.93;3.95;;;16.30;47.70;;;;;;4828427;29;20050;-91
2023/04/13 11:02:29;;;;;;;24.77;13.37;;;16.30;46.50;;;;;;4832397;29;20045;-89
2023/04/13 11:04:57;;;;;;;28.52;15.85;;;16.30;47.10;;;;;;4828265;29;20046;-89
2023/04/13 11:07:25;;;;;;;26.27;15.13;;;16.30;47.90;;;;;;4825536;29;20053;-89
2023/04/13 11:09:58;;;;;;;13.73;8.27;;;16.30;48.90;;;;;;4839323;29;20113;-90
2023/04/13 11:12:29;;;;;;;45.05;34.63;;;16.10;48.70;;;;;;4841075;29;20512;-88
2023/04/13 11:14:56;;;;;;;21.57;14.37;;;15.80;49.70;;;;;;4831616;29;20081;-89
2023/04/13 11:17:23;;;;;;;17.15;7.45;;;15.70;50.90;;;;;;4846473;29;20050;-90
2023/04/13 11:19:52;;;;;;;12.40;4.75;;;15.70;51.70;;;;;;4817796;29;20042;-92
2023/04/13 11:22:27;;;;;;;11.73;6.63;;;15.60;50.20;;;;;;4831461;29;20085;-90
2023/04/13 11:25:05;;;;;;;15.18;7.47;;;15.30;51.20;;;;;;4834376;29;20053;-90
2023/04/13 11:27:32;;;;;;;24.03;14.97;;;15.10;52.20;;;;;;4828326;29;20070;-89
2023/04/13 11:30:05;;;;;;;55.45;30.70;;;15.00;51.80;;;;;;4828336;29;20140;-89
2023/04/13 11:32:33;;;;;;;64.78;37.63;;;14.70;53.70;;;;;;4820534;29;20045;-90
2023/04/13 11:35:21;;;;;;;24.23;12.90;;;14.60;54.10;;;;;;4817375;29;20505;-90
2023/04/13 11:37:53;;;;;;;13.18;5.85;;;14.50;53.40;;;;;;4829905;29;20046;-90
2023/04/13 11:40:26;;;;;;;68.03;16.50;;;14.40;53.70;;;;;;4845200;29;20144;-90
2023/04/13 11:42:58;;;;;;;29.38;13.45;;;14.30;54.40;;;;;;4832328;29;20045;-91
2023/04/13 11:45:27;;;;;;;380.63;174.73;;;14.20;54.70;;;;;;4837056;29;20065;-90
2023/04/13 11:47:56;;;;;;;36.22;15.25;;;14.20;55.70;;;;;;4813231;29;20145;-89
2023/04/13 11:50:24;;;;;;;26.23;15.85;;;14.00;54.70;;;;;;4812675;29;20060;-91
2023/04/13 11:52:56;;;;;;;12.73;6.03;;;13.80;55.70;;;;;;4813308;29;20045;-92
2023/04/13 11:55:25;;;;;;;15.65;10.38;;;13.60;56.40;;;;;;4809668;29;20050;-90
2023/04/13 11:57:53;;;;;;;21.17;9.93;;;13.50;56.60;;;;;;4809664;29;20570;-90
2023/04/13 12:00:25;;;;;;;11.75;6.90;;;13.50;55.40;;;;;;4794423;29;20141;-90
2023/04/13 12:02:56;;;;;;;23.45;14.48;;;13.40;55.80;;;;;;4795092;29;20421;-91
2023/04/13 12:05:28;;;;;;;21.00;14.00;;;13.40;56.40;;;;;;4815966;29;20110;-88
2023/04/13 12:07:57;;;;;;;18.38;8.35;;;13.40;56.50;;;;;;4807427;29;20054;-90
2023/04/13 12:10:30;;;;;;;13.63;6.45;;;13.50;57.20;;;;;;4824565;29;20057;-90
2023/04/13 12:13:09;;;;;;;19.52;7.93;;;13.40;56.30;;;;;;4809130;29;20107;-91
2023/04/13 12:15:45;;;;;;;16.17;8.25;;;13.30;57.60;;;;;;4809708;29;20416;-90
2023/04/13 12:18:38;;;;;;;15.17;8.20;;;13.30;57.60;;;;;;4826228;29;20060;-89
2023/04/13 12:21:06;;;;;;;17.48;9.25;;;13.30;58.70;;;;;;4822393;29;20045;-89
2023/04/13 12:23:33;;;;;;;18.35;9.63;;;13.30;58.50;;;;;;4822958;29;20042;-89
2023/04/13 12:26:07;;;;;;;12.68;7.18;;;13.20;59.00;;;;;;4817896;29;20065;-91
2023/04/13 12:28:55;;;;;;;17.63;7.50;;;13.20;59.00;;;;;;4827149;29;20085;-90
2023/04/13 12:31:23;;;;;;;15.93;7.50;;;13.10;59.20;;;;;;4800139;29;20458;-90
2023/04/13 12:33:50;;;;;;;18.73;7.90;;;13.10;60.10;;;;;;4811891;29;20132;-91
2023/04/13 12:36:17;;;;;;;15.35;8.10;;;13.20;59.70;;;;;;4827406;29;20123;-91
2023/04/13 12:38:44;;;;;;;13.75;7.68;;;13.30;59.70;;;;;;4820489;29;20134;-91
2023/04/13 12:41:11;;;;;;;27.08;8.73;;;13.30;59.00;;;;;;4794057;29;20051;-90
2023/04/13 12:43:39;;;;;;;15.10;6.50;;;13.30;59.60;;;;;;4809012;29;20103;-91
2023/04/13 12:46:06;;;;;;;13.57;6.22;;;13.20;59.20;;;;;;4794004;29;20081;-91
2023/04/13 12:48:33;;;;;;;14.75;7.70;;;13.10;59.40;;;;;;4809026;29;20140;-90
2023/04/13 12:51:00;;;;;;;11.50;6.20;;;13.10;59.20;;;;;;4816215;29;20049;-90
2023/04/13 12:53:30;;;;;;;15.70;7.53;;;12.90;59.70;;;;;;4827199;29;20061;-91
2023/04/13 12:55:57;;;;;;;14.63;6.40;;;13.00;60.20;;;;;;4829667;29;20050;-90
2023/04/13 12:58:27;;;;;;;11.82;5.78;;;12.90;60.80;;;;;;4803165;29;20467;-90
2023/04/13 13:00:54;;;;;;;24.95;5.97;;;12.90;60.70;;;;;;4797403;29;20050;-90
2023/04/13 13:03:22;;;;;;;10.63;4.88;;;12.80;60.50;;;;;;4815925;29;20050;-90
2023/04/13 13:05:51;;;;;;;15.80;6.15;;;12.80;60.80;;;;;;4815043;29;20053;-89
2023/04/13 13:08:18;;;;;;;12.00;5.47;;;12.70;61.00;;;;;;4809333;29;20118;-89
2023/04/13 13:10:45;;;;;;;13.48;6.30;;;12.60;61.50;;;;;;4819441;29;20050;-91
2023/04/13 13:13:15;;;;;;;12.77;5.70;;;12.50;63.20;;;;;;4821253;29;20520;-89
2023/04/13 13:15:43;;;;;;;10.55;5.35;;;12.50;62.90;;;;;;4818449;29;20051;-87
2023/04/13 13:18:13;;;;;;;11.25;4.85;;;12.50;61.50;;;;;;4798505;29;20130;-88
2023/04/13 13:20:40;;;;;;;12.03;5.77;;;12.50;60.90;;;;;;4817341;29;20506;-87
2023/04/13 13:23:10;;;;;;;10.68;4.75;;;12.50;61.30;;;;;;4820708;29;20038;-88
2023/04/13 13:25:43;;;;;;;11.27;4.65;;;12.50;61.10;;;;;;4808135;29;20386;-91
2023/04/13 13:28:30;;;;;;;16.65;8.07;;;12.50;60.20;;;;;;4804686;29;20042;-89
2023/04/13 13:30:57;;;;;;;16.50;7.75;;;12.40;61.20;;;;;;4796052;29;20410;-90
2023/04/13 13:33:25;;;;;;;11.20;4.30;;;12.30;62.20;;;;;;4812530;29;20050;-90
2023/04/13 13:35:52;;;;;;;10.82;5.18;;;12.20;61.90;;;;;;4797936;29;20046;-88
2023/04/13 13:38:19;;;;;;;15.65;4.88;;;12.10;62.60;;;;;;4821443;29;20070;-88
2023/04/13 13:40:46;;;;;;;10.55;5.10;;;12.10;63.40;;;;;;4802416;29;20042;-89
2023/04/13 13:43:13;;;;;;;11.05;4.88;;;12.00;64.60;;;;;;4819829;29;20039;-89
2023/04/13 13:45:40;;;;;;;11.67;5.30;;;12.10;64.90;;;;;;4805193;29;20050;-88
2023/04/13 13:48:08;;;;;;;14.68;5.97;;;12.10;65.60;;;;;;4812317;29;20050;-89
2023/04/13 13:50:46;;;;;;;11.93;5.85;;;12.00;65.70;;;;;;4814101;29;20050;-89
2023/04/13 13:53:16;;;;;;;11.82;5.95;;;12.00;65.00;;;;;;4810859;29;20105;-89
2023/04/13 13:55:46;;;;;;;12.45;5.70;;;11.90;65.50;;;;;;4816093;29;20046;-89
2023/04/13 13:58:16;;;;;;;10.03;4.80;;;11.90;66.50;;;;;;4812513;29;20042;-89
2023/04/13 14:00:43;;;;;;;11.15;4.75;;;11.90;66.30;;;;;;4815847;29;20445;-89
2023/04/13 14:03:13;;;;;;;11.73;5.43;;;11.80;65.90;;;;;;4800061;29;20042;-89
2023/04/13 14:05:44;;;;;;;15.02;5.90;;;11.90;66.30;;;;;;4814482;29;20050;-89
2023/04/13 14:08:12;;;;;;;15.13;6.10;;;11.80;66.70;;;;;;4817138;29;20050;-88
2023/04/13 14:10:40;;;;;;;14.03;7.07;;;11.90;67.60;;;;;;4812437;29;20544;-88
2023/04/13 14:13:07;;;;;;;12.32;5.75;;;11.90;67.90;;;;;;4820795;29;20528;-89
2023/04/13 14:15:37;;;;;;;14.35;6.32;;;11.90;67.10;;;;;;4817785;29;20050;-89
2023/04/13 14:18:05;;;;;;;14.63;6.90;;;11.90;68.90;;;;;;4823881;29;20049;-89
2023/04/13 14:20:38;;;;;;;12.90;7.22;;;11.90;69.00;;;;;;4823758;29;20426;-88
2023/04/13 14:23:07;;;;;;;18.13;7.67;;;11.80;70.30;;;;;;4803164;29;20505;-89
2023/04/13 14:25:38;;;;;;;13.60;6.47;;;11.80;70.60;;;;;;4816432;29;20058;-89
2023/04/13 14:28:05;;;;;;;15.38;5.80;;;11.70;70.80;;;;;;4823919;29;20525;-89
2023/04/13 14:30:32;;;;;;;13.02;6.80;;;11.50;71.00;;;;;;4817608;29;20054;-88
2023/04/13 14:33:00;;;;;;;19.50;7.75;;;11.50;71.70;;;;;;4807839;29;20074;-88
2023/04/13 14:35:28;;;;;;;14.10;7.37;;;11.40;72.10;;;;;;4811437;29;20042;-88
2023/04/13 14:37:55;;;;;;;17.60;8.20;;;11.20;73.00;;;;;;4818250;29;20049;-88
2023/04/13 14:40:23;;;;;;;18.13;8.27;;;11.20;73.40;;;;;;4819201;29;20049;-88
2023/04/13 14:42:51;;;;;;;19.63;9.15;;;11.00;74.00;;;;;;4805843;29;20050;-88
2023/04/13 14:45:19;;;;;;;14.70;8.05;;;11.10;74.40;;;;;;4819981;29;20527;-88
2023/04/13 14:47:47;;;;;;;18.37;8.40;;;11.20;73.90;;;;;;4807693;29;20043;-90
2023/04/13 14:50:15;;;;;;;13.68;7.65;;;11.30;74.10;;;;;;4822663;29;20073;-90
2023/04/13 14:52:44;;;;;;;16.65;7.68;;;11.40;73.70;;;;;;4809076;29;20052;-91
2023/04/13 14:55:13;;;;;;;17.75;8.63;;;11.50;74.10;;;;;;4795151;29;20415;-91
2023/04/13 14:57:45;;;;;;;19.48;10.98;;;11.50;73.50;;;;;;4811746;29;20578;-91
2023/04/13 15:00:15;;;;;;;26.70;14.53;;;11.50;73.30;;;;;;4823176;29;20054;-90
2023/04/13 15:02:42;;;;;;;13.45;8.30;;;11.50;74.40;;;;;;4804823;29;20046;-91
2023/04/13 15:05:09;;;;;;;19.65;11.60;;;11.40;74.40;;;;;;4814088;29;20050;-91
2023/04/13 15:07:36;;;;;;;16.60;8.55;;;11.30;74.80;;;;;;4801684;29;20054;-89
2023/04/13 15:10:07;;;;;;;11.88;6.25;;;11.10;75.60;;;;;;4803661;29;20050;-89
2023/04/13 15:12:34;;;;;;;9.13;4.07;;;11.00;75.30;;;;;;4805433;29;20453;-91
2023/04/13 15:15:01;;;;;;;9.85;5.25;;;11.00;74.90;;;;;;4811674;29;20053;-90
2023/04/13 15:17:29;;;;;;;12.25;7.03;;;10.80;75.90;;;;;;4814752;29;20131;-91
2023/04/13 15:19:56;;;;;;;16.08;10.02;;;10.80;76.40;;;;;;4819102;29;20472;-91
2023/04/13 15:22:23;;;;;;;11.52;7.60;;;10.60;76.00;;;;;;4804484;29;20042;-90
2023/04/13 15:24:50;;;;;;;11.17;5.57;;;10.50;76.80;;;;;;4805202;29;20182;-90
2023/04/13 15:27:17;;;;;;;11.80;6.95;;;10.50;77.10;;;;;;4818299;29;20049;-90
2023/04/13 15:29:44;;;;;;;12.52;7.72;;;10.40;77.50;;;;;;4820522;29;20097;-91
2023/04/13 15:32:11;;;;;;;12.48;7.75;;;10.40;77.90;;;;;;4804375;29;20049;-90
2023/04/13 15:34:39;;;;;;;12.48;6.80;;;10.50;77.90;;;;;;4800302;29;20046;-89
2023/04/13 15:37:06;;;;;;;13.00;6.67;;;10.50;78.00;;;;;;4817853;29;20046;-89
2023/04/13 15:39:33;;;;;;;12.95;7.40;;;10.50;77.80;;;;;;4797196;29;20050;-93
2023/04/13 15:42:00;;;;;;;12.35;6.15;;;10.50;78.10;;;;;;4826467;29;20076;-92
2023/04/13 15:44:29;;;;;;;9.25;5.03;;;10.50;77.60;;;;;;4817986;29;20552;-92
2023/04/13 15:46:56;;;;;;;14.07;6.80;;;10.50;77.30;;;;;;4821291;29;20050;-92
2023/04/13 15:49:23;;;;;;;25.40;12.67;;;10.60;77.20;;;;;;4812337;29;20512;-93
2023/04/13 15:51:50;;;;;;;19.92;10.00;;;10.60;77.80;;;;;;4815212;29;20080;-94
2023/04/13 15:54:17;;;;;;;13.13;7.80;;;10.60;78.00;;;;;;4819992;29;20064;-94
2023/04/13 15:56:47;;;;;;;17.92;8.75;;;10.70;77.90;;;;;;4817404;29;20450;-95
2023/04/13 15:59:16;;;;;;;17.38;11.07;;;10.60;77.80;;;;;;4814497;29;20561;-88
2023/04/13 16:01:48;;;;;;;18.20;9.60;;;10.70;78.00;;;;;;4816526;29;20133;-89
2023/04/13 16:04:16;;;;;;;21.10;12.02;;;10.50;78.10;;;;;;4816347;29;20050;-90
2023/04/13 16:06:43;;;;;;;18.55;11.05;;;10.50;78.40;;;;;;4813875;29;20148;-91
2023/04/13 16:09:10;;;;;;;16.08;10.02;;;10.50;78.50;;;;;;4821715;29;20125;-91
2023/04/13 16:11:39;;;;;;;17.02;9.55;;;10.50;78.30;;;;;;4799967;29;20077;-89
2023/04/13 16:14:07;;;;;;;15.47;9.23;;;10.50;78.50;;;;;;4802437;29;20050;-89
2023/04/13 16:16:45;;;;;;;15.52;9.27;;;10.50;78.30;;;;;;4801898;29;20118;-90
2023/04/13 16:19:17;;;;;;;20.17;11.00;;;10.50;78.40;;;;;;4802957;29;20050;-90
2023/04/13 16:21:49;;;;;;;22.23;12.75;;;10.50;78.80;;;;;;4831799;29;20116;-91
2023/04/13 16:24:18;;;;;;;19.55;10.43;;;10.50;78.60;;;;;;4816358;29;20091;-90
2023/04/13 16:26:48;;;;;;;13.87;8.37;;;10.50;78.80;;;;;;4813279;29;20058;-90
2023/04/13 16:29:16;;;;;;;18.05;10.45;;;10.50;78.50;;;;;;4821665;29;20103;-90
2023/04/13 16:31:46;;;;;;;16.90;9.82;;;10.50;78.80;;;;;;4821216;29;20179;-88
2023/04/13 16:34:13;;;;;;;14.52;8.93;;;10.50;78.20;;;;;;4817591;29;20059;-88
2023/04/13 16:36:52;;;;;;;13.23;8.18;;;10.50;77.90;;;;;;4815140;29;20055;-88
2023/04/13 16:39:20;;;;;;;16.10;8.57;;;10.30;78.40;;;;;;4820284;29;20107;-88
2023/04/13 16:41:47;;;;;;;14.95;9.43;;;10.20;78.80;;;;;;4814011;29;20180;-88
2023/04/13 16:44:14;;;;;;;19.30;10.13;;;10.00;79.70;;;;;;4803385;29;20468;-88
2023/04/13 16:46:41;;;;;;;15.77;9.90;;;10.00;79.70;;;;;;4818640;29;20103;-88
2023/04/13 16:49:09;;;;;;;16.05;8.65;;;10.00;79.60;;;;;;4797076;29;20414;-87
2023/04/13 16:51:36;;;;;;;31.47;16.43;;;10.00;79.70;;;;;;4815130;29;20062;-87
2023/04/13 16:54:05;;;;;;;24.08;13.52;;;10.10;79.70;;;;;;4813567;29;20057;-87
2023/04/13 16:56:33;;;;;;;27.00;14.40;;;10.20;79.30;;;;;;4810530;29;20104;-88
2023/04/13 16:59:00;;;;;;;22.58;13.55;;;10.20;79.10;;;;;;4808047;29;20074;-87
2023/04/13 17:01:27;;;;;;;21.73;11.65;;;10.20;79.30;;;;;;4806646;29;20067;-87
2023/04/13 17:03:55;;;;;;;19.83;12.33;;;10.10;79.30;;;;;;4809374;29;20566;-87
2023/04/13 17:06:22;;;;;;;20.92;10.68;;;10.10;79.40;;;;;;4796441;29;20073;-87
2023/04/13 17:08:49;;;;;;;18.73;11.75;;;10.00;79.20;;;;;;4824147;29;20047;-86
2023/04/13 17:11:16;;;;;;;18.58;9.52;;;10.00;79.40;;;;;;4818103;29;20047;-87
2023/04/13 17:13:43;;;;;;;24.58;14.13;;;10.00;79.50;;;;;;4790779;29;20121;-87
2023/04/13 17:16:10;;;;;;;21.70;12.80;;;10.00;79.50;;;;;;4810940;29;20046;-88
2023/04/13 17:18:38;;;;;;;21.15;12.20;;;10.00;79.60;;;;;;4813565;29;20444;-87
2023/04/13 17:21:06;;;;;;;21.50;13.27;;;10.00;79.50;;;;;;4813240;29;20056;-88
2023/04/13 17:23:33;;;;;;;21.52;12.75;;;10.00;79.60;;;;;;4806881;29;20451;-87
2023/04/13 17:26:00;;;;;;;20.23;12.27;;;10.00;79.40;;;;;;4808442;29;20082;-88
2023/04/13 17:28:27;;;;;;;25.70;15.03;;;10.00;79.30;;;;;;4798155;29;20050;-87
2023/04/13 17:30:54;;;;;;;27.67;17.25;;;10.00;79.40;;;;;;4817504;29;20458;-87
2023/04/13 17:33:23;;;;;;;28.15;17.92;;;9.90;79.00;;;;;;4814217;29;20046;-87
2023/04/13 17:35:53;;;;;;;26.48;16.83;;;9.90;79.10;;;;;;4817091;29;20059;-89
2023/04/13 17:38:20;;;;;;;20.95;12.43;;;10.00;79.00;;;;;;4812590;29;20046;-89
2023/04/13 17:40:49;;;;;;;23.80;14.13;;;9.80;79.20;;;;;;4807627;29;20074;-87
2023/04/13 17:43:19;;;;;;;21.10;12.27;;;9.80;79.70;;;;;;4811982;29;20053;-87
2023/04/13 17:45:48;;;;;;;30.77;16.33;;;9.80;79.50;;;;;;4798436;29;20047;-91
2023/04/13 17:48:16;;;;;;;31.63;17.17;;;9.90;79.80;;;;;;4798034;29;20502;-88
2023/04/13 17:50:43;;;;;;;27.95;15.82;;;9.90;79.60;;;;;;4812322;29;20042;-87
2023/04/13 17:53:10;;;;;;;33.10;17.87;;;10.00;79.00;;;;;;4816643;29;20146;-86
2023/04/13 17:55:37;;;;;;;33.20;17.80;;;10.00;79.10;;;;;;4816605;29;20077;-86
2023/04/13 17:58:04;;;;;;;32.90;20.00;;;10.00;78.80;;;;;;4802148;29;20046;-87